SULAYMANIYAH INTERNATIONAL AIRPORT
  • SulyAir
  • SulyAir
1 1
Arrival

ArrivalsMore >>

Departure

DeparturesMore >>

TAF

METARs

METAR ORSU 090400Z 21010KT 9999 SCT040 BKN070 12/08 Q1021=